Time;durP1;ratioP1;P1;durP2;ratioP2;P2;SDS_P1;SDS_P2;PMS_P1;PMS_P2;Temp;Humidity;BMP_temperature;BMP_pressure;BME280_temperature;BME280_humidity;BME280_pressure;Samples;Min_cycle;Max_cycle;Signal;HPM_P1;HPM_P2
2023/07/27 00:00:53;;;;;;;4.38;2.03;;;21.60;68.50;;;;;;5032210;28;20057;-58
2023/07/27 00:03:19;;;;;;;7.30;2.15;;;21.60;68.50;;;;;;5032060;28;20508;-59
2023/07/27 00:05:45;;;;;;;4.82;1.85;;;21.60;68.50;;;;;;5032011;28;20092;-58
2023/07/27 00:08:10;;;;;;;5.03;1.98;;;21.60;68.50;;;;;;5032468;28;20037;-58
2023/07/27 00:10:36;;;;;;;4.55;1.92;;;21.60;68.50;;;;;;5031409;28;20069;-59
2023/07/27 00:13:01;;;;;;;4.50;2.28;;;21.60;68.40;;;;;;5032491;28;20045;-59
2023/07/27 00:15:27;;;;;;;4.30;1.88;;;21.60;69.00;;;;;;5031775;28;20053;-58
2023/07/27 00:17:53;;;;;;;4.03;2.10;;;21.60;68.40;;;;;;5031283;28;20990;-58
2023/07/27 00:20:18;;;;;;;4.75;1.95;;;21.60;68.40;;;;;;5032027;28;20107;-59
2023/07/27 00:22:44;;;;;;;3.78;2.00;;;21.50;68.30;;;;;;5031988;28;20057;-59
2023/07/27 00:25:09;;;;;;;4.78;2.10;;;21.60;68.40;;;;;;5031430;28;20041;-59
2023/07/27 00:27:35;;;;;;;4.50;1.83;;;21.50;68.30;;;;;;5032338;28;20057;-58
2023/07/27 00:30:00;;;;;;;3.97;1.98;;;21.50;68.30;;;;;;5032227;28;20045;-59
2023/07/27 00:32:26;;;;;;;4.82;2.08;;;21.50;68.30;;;;;;5031924;28;20047;-59
2023/07/27 00:34:51;;;;;;;4.68;2.20;;;21.50;68.30;;;;;;5032158;28;20049;-58
2023/07/27 00:37:17;;;;;;;3.35;1.90;;;21.50;68.20;;;;;;5030285;28;20037;-57
2023/07/27 00:39:43;;;;;;;3.35;1.83;;;21.50;68.30;;;;;;5031747;28;20033;-57
2023/07/27 00:42:08;;;;;;;5.05;2.03;;;21.50;68.20;;;;;;5031175;28;20065;-56
2023/07/27 00:44:34;;;;;;;3.15;1.80;;;21.50;68.20;;;;;;5031012;28;20168;-57
2023/07/27 00:47:00;;;;;;;3.55;2.00;;;21.50;68.30;;;;;;5032275;28;20041;-57
2023/07/27 00:49:25;;;;;;;5.22;2.10;;;21.50;68.30;;;;;;5030767;28;20041;-57
2023/07/27 00:51:51;;;;;;;4.75;1.90;;;21.50;68.30;;;;;;5031207;28;20053;-57
2023/07/27 00:54:16;;;;;;;3.83;2.00;;;21.50;68.20;;;;;;5031707;28;20049;-57
2023/07/27 00:56:42;;;;;;;4.90;1.70;;;21.50;68.20;;;;;;5030450;28;20042;-56
2023/07/27 00:59:07;;;;;;;5.38;2.20;;;21.50;68.20;;;;;;5031517;28;20060;-57
2023/07/27 01:01:33;;;;;;;4.18;1.88;;;21.50;68.20;;;;;;5031843;28;20056;-56
2023/07/27 01:03:59;;;;;;;3.55;1.80;;;21.50;68.30;;;;;;5031633;28;20404;-57
2023/07/27 01:06:24;;;;;;;4.30;2.10;;;21.50;68.30;;;;;;5029909;28;20042;-57
2023/07/27 01:08:53;;;;;;;3.20;1.92;;;21.50;68.30;;;;;;5033741;28;20477;-58
2023/07/27 01:11:36;;;;;;;4.70;1.85;;;21.50;68.20;;;;;;5034929;28;20046;-58
2023/07/27 01:14:27;;;;;;;3.03;1.75;;;21.50;68.20;;;;;;5034721;28;20041;-58
2023/07/27 01:16:58;;;;;;;4.43;2.00;;;21.50;68.10;;;;;;5033988;28;20042;-58
2023/07/27 01:19:51;;;;;;;4.07;2.00;;;21.50;68.20;;;;;;5033414;28;20096;-57
2023/07/27 01:22:32;;;;;;;3.95;1.73;;;21.40;68.10;;;;;;5035167;28;20061;-57
2023/07/27 01:25:35;;;;;;;4.38;1.80;;;21.40;68.10;;;;;;5034988;28;20137;-57
2023/07/27 01:28:33;;;;;;;3.60;1.80;;;21.40;68.10;;;;;;5034597;28;20081;-57
2023/07/27 01:31:20;;;;;;;3.53;1.90;;;21.40;68.10;;;;;;5035228;28;20037;-57
2023/07/27 01:33:49;;;;;;;3.47;1.87;;;21.40;68.10;;;;;;5032631;28;20440;-57
2023/07/27 01:36:21;;;;;;;3.15;2.00;;;21.40;68.10;;;;;;5033511;28;20057;-57
2023/07/27 01:38:47;;;;;;;4.53;2.05;;;21.40;68.10;;;;;;5033467;28;20501;-57
2023/07/27 01:41:13;;;;;;;4.30;2.00;;;21.40;68.10;;;;;;5016232;28;20060;-57
2023/07/27 01:43:42;;;;;;;3.90;2.20;;;21.40;68.10;;;;;;5034668;28;20489;-57
2023/07/27 01:46:08;;;;;;;3.75;2.00;;;21.40;68.10;;;;;;5033635;28;20473;-57
2023/07/27 01:48:33;;;;;;;4.75;2.00;;;21.40;68.20;;;;;;5032735;28;20523;-57
2023/07/27 01:50:59;;;;;;;4.00;1.95;;;21.40;68.10;;;;;;5034901;28;20057;-58
2023/07/27 01:53:26;;;;;;;3.40;2.10;;;21.40;68.10;;;;;;5033329;28;20385;-58
2023/07/27 01:55:51;;;;;;;4.05;2.00;;;21.40;68.10;;;;;;5032433;28;20084;-57
2023/07/27 01:58:17;;;;;;;3.17;1.70;;;21.40;68.10;;;;;;5033649;28;20073;-57
2023/07/27 02:00:43;;;;;;;3.67;1.70;;;21.40;68.10;;;;;;5033033;28;20033;-57
2023/07/27 02:03:12;;;;;;;4.70;2.00;;;21.40;68.10;;;;;;5032061;28;20049;-57
2023/07/27 02:05:37;;;;;;;4.03;1.92;;;21.40;68.10;;;;;;5032086;28;20045;-57
2023/07/27 02:08:03;;;;;;;3.70;1.90;;;21.40;68.10;;;;;;5033296;28;20049;-57
2023/07/27 02:10:30;;;;;;;3.78;1.70;;;21.40;68.70;;;;;;5033749;28;20046;-57
2023/07/27 02:12:58;;;;;;;4.53;2.03;;;21.40;68.10;;;;;;5032954;28;20536;-57
2023/07/27 02:15:26;;;;;;;3.97;2.03;;;21.40;68.10;;;;;;5032544;28;20045;-57
2023/07/27 02:17:53;;;;;;;;;;;21.40;68.10;;;;;;5016186;28;20164;-57
2023/07/27 02:20:19;;;;;;;4.40;2.00;;;21.30;68.60;;;;;;5033759;28;19928;-57
2023/07/27 02:22:44;;;;;;;2.83;1.70;;;21.30;68.10;;;;;;5031464;28;20049;-57
2023/07/27 02:25:10;;;;;;;3.30;1.75;;;21.30;68.10;;;;;;5033154;28;20136;-57
2023/07/27 02:27:35;;;;;;;3.42;1.70;;;21.30;68.10;;;;;;5032974;28;20041;-57
2023/07/27 02:30:01;;;;;;;4.03;1.90;;;21.30;68.10;;;;;;5032249;28;20551;-57
2023/07/27 02:32:27;;;;;;;3.78;1.88;;;21.30;68.10;;;;;;5033864;28;20065;-57
2023/07/27 02:34:52;;;;;;;3.13;2.00;;;21.30;68.10;;;;;;5032306;28;20782;-57
2023/07/27 02:37:18;;;;;;;3.83;1.60;;;21.30;68.00;;;;;;5032968;28;20091;-57
2023/07/27 02:39:43;;;;;;;3.60;2.13;;;21.40;68.70;;;;;;5033404;28;20037;-57
2023/07/27 02:42:09;;;;;;;4.32;1.60;;;21.30;68.10;;;;;;5033707;28;20124;-57
2023/07/27 02:44:35;;;;;;;2.90;1.70;;;21.30;68.10;;;;;;5032830;28;20033;-57
2023/07/27 02:47:00;;;;;;;2.80;1.67;;;21.30;68.10;;;;;;5033716;28;20139;-57
2023/07/27 02:49:26;;;;;;;4.05;1.95;;;21.30;68.00;;;;;;5033794;28;20052;-57
2023/07/27 02:51:51;;;;;;;3.47;1.90;;;21.30;68.00;;;;;;5031567;28;20129;-57
2023/07/27 02:54:17;;;;;;;4.95;2.10;;;21.30;68.00;;;;;;5033548;28;20045;-57
2023/07/27 02:56:42;;;;;;;3.40;1.90;;;21.30;68.10;;;;;;5033223;28;20049;-57
2023/07/27 02:59:08;;;;;;;3.70;1.98;;;21.30;68.10;;;;;;5033063;28;20049;-57
2023/07/27 03:01:34;;;;;;;2.92;1.90;;;21.30;68.00;;;;;;5033152;28;20491;-57
2023/07/27 03:03:59;;;;;;;3.92;2.10;;;21.30;68.00;;;;;;5033521;28;20046;-57
2023/07/27 03:06:25;;;;;;;3.28;2.15;;;21.30;68.00;;;;;;5032014;28;20069;-57
2023/07/27 03:08:50;;;;;;;3.67;2.00;;;21.30;68.00;;;;;;5032976;28;20077;-56
2023/07/27 03:11:16;;;;;;;3.30;1.77;;;21.30;68.00;;;;;;5033154;28;20056;-57
2023/07/27 03:13:41;;;;;;;3.10;1.50;;;21.30;68.10;;;;;;5032252;28;20060;-57
2023/07/27 03:16:07;;;;;;;3.55;1.80;;;21.30;68.10;;;;;;5032723;28;20140;-57
2023/07/27 03:18:33;;;;;;;3.05;1.75;;;21.30;68.00;;;;;;5033314;28;20033;-57
2023/07/27 03:21:02;;;;;;;2.85;1.73;;;21.30;68.00;;;;;;5032380;28;20461;-57
2023/07/27 03:23:28;;;;;;;2.65;1.65;;;21.30;68.00;;;;;;5033450;28;20073;-57
2023/07/27 03:25:53;;;;;;;3.13;1.70;;;21.30;68.00;;;;;;5032082;28;20412;-57
2023/07/27 03:28:19;;;;;;;2.67;1.73;;;21.30;68.00;;;;;;5033155;28;20041;-57
2023/07/27 03:30:44;;;;;;;3.75;1.70;;;21.30;68.60;;;;;;5032521;28;20098;-57
2023/07/27 03:33:10;;;;;;;3.35;1.77;;;21.30;68.10;;;;;;5032565;28;20121;-56
2023/07/27 03:35:36;;;;;;;3.35;1.63;;;21.20;68.00;;;;;;5032798;28;20056;-57
2023/07/27 03:38:02;;;;;;;4.07;1.90;;;21.30;68.10;;;;;;5033126;28;20038;-57
2023/07/27 03:40:27;;;;;;;4.57;2.05;;;21.20;68.00;;;;;;5031948;28;20448;-57
2023/07/27 03:42:53;;;;;;;3.45;2.05;;;21.20;68.00;;;;;;5032650;28;20128;-57
2023/07/27 03:45:19;;;;;;;3.75;1.90;;;21.20;68.60;;;;;;5032835;28;20033;-57
2023/07/27 03:47:44;;;;;;;3.40;2.08;;;21.20;67.90;;;;;;5031496;28;20430;-57
2023/07/27 03:50:10;;;;;;;4.07;2.08;;;21.20;67.90;;;;;;5032797;28;20046;-58
2023/07/27 03:52:36;;;;;;;3.53;1.88;;;21.20;67.90;;;;;;5032471;28;20120;-57
2023/07/27 03:55:02;;;;;;;3.85;1.88;;;21.20;67.90;;;;;;5031736;28;20473;-57
2023/07/27 03:57:28;;;;;;;3.53;2.03;;;21.20;67.90;;;;;;5032504;28;20049;-57
2023/07/27 03:59:57;;;;;;;3.35;1.70;;;21.20;67.90;;;;;;5032128;28;20133;-57
2023/07/27 04:02:26;;;;;;;3.20;1.70;;;21.20;67.90;;;;;;5031196;28;20396;-57
2023/07/27 04:04:51;;;;;;;2.95;1.77;;;21.20;67.90;;;;;;5030927;28;20056;-57
2023/07/27 04:07:18;;;;;;;3.72;1.70;;;21.20;67.90;;;;;;5032070;28;20046;-57
2023/07/27 04:09:43;;;;;;;2.78;1.83;;;21.20;67.90;;;;;;5031577;28;20501;-57
2023/07/27 04:12:09;;;;;;;3.47;1.85;;;21.20;67.90;;;;;;5032617;28;20084;-57
2023/07/27 04:14:35;;;;;;;3.13;1.63;;;21.20;67.90;;;;;;5030620;28;20481;-57
2023/07/27 04:17:01;;;;;;;2.45;1.75;;;21.20;67.90;;;;;;5030409;28;20045;-57
2023/07/27 04:19:26;;;;;;;3.72;1.98;;;21.20;67.90;;;;;;5032665;28;20061;-57
2023/07/27 04:21:52;;;;;;;2.90;1.55;;;21.20;67.90;;;;;;5031985;28;20049;-57
2023/07/27 04:24:17;;;;;;;3.88;1.85;;;21.20;67.90;;;;;;5031881;28;20067;-57
2023/07/27 04:26:43;;;;;;;2.80;1.63;;;21.20;67.90;;;;;;5031809;28;20049;-57
2023/07/27 04:29:08;;;;;;;3.20;1.83;;;21.20;67.90;;;;;;5031075;28;20551;-57
2023/07/27 04:31:34;;;;;;;3.22;1.67;;;21.20;67.90;;;;;;5031539;28;20049;-57
2023/07/27 04:33:59;;;;;;;3.08;2.00;;;21.20;67.90;;;;;;5032293;28;20064;-57
2023/07/27 04:36:25;;;;;;;4.43;1.85;;;21.20;67.90;;;;;;5031610;28;20396;-57
2023/07/27 04:38:50;;;;;;;3.13;1.98;;;21.20;67.90;;;;;;5029208;28;20037;-57
2023/07/27 04:41:16;;;;;;;3.10;1.73;;;21.20;67.90;;;;;;5031143;28;20135;-57
2023/07/27 04:43:42;;;;;;;2.92;1.73;;;21.10;67.80;;;;;;5032631;28;20578;-57
2023/07/27 04:46:07;;;;;;;3.00;1.80;;;21.20;67.90;;;;;;5036079;28;20132;-57
2023/07/27 04:48:33;;;;;;;2.80;1.60;;;21.20;67.90;;;;;;5035267;28;20048;-57
2023/07/27 04:50:58;;;;;;;2.58;1.65;;;21.20;67.90;;;;;;5034109;28;20143;-56
2023/07/27 04:53:24;;;;;;;3.13;1.67;;;21.20;67.90;;;;;;5036191;28;20052;-57
2023/07/27 04:55:50;;;;;;;3.15;1.77;;;21.20;67.90;;;;;;5035415;28;20037;-57
2023/07/27 04:58:15;;;;;;;2.63;1.63;;;21.10;67.90;;;;;;5035168;28;20052;-56
2023/07/27 05:00:41;;;;;;;2.80;1.70;;;21.10;67.90;;;;;;5034377;28;20042;-57
2023/07/27 05:03:06;;;;;;;3.72;1.70;;;21.10;67.80;;;;;;5033612;28;20231;-57
2023/07/27 05:05:32;;;;;;;2.75;1.67;;;21.10;67.90;;;;;;5034422;28;20048;-57
2023/07/27 05:07:57;;;;;;;3.15;1.85;;;21.10;67.90;;;;;;5035127;28;20065;-57
2023/07/27 05:10:23;;;;;;;2.58;1.60;;;21.10;67.90;;;;;;5035190;28;20049;-57
2023/07/27 05:12:49;;;;;;;2.60;1.70;;;21.10;67.90;;;;;;5033954;28;20168;-57
2023/07/27 05:15:15;;;;;;;3.00;1.83;;;21.10;67.90;;;;;;5035413;28;20049;-57
2023/07/27 05:17:41;;;;;;;3.17;1.92;;;21.10;67.90;;;;;;5035073;28;20045;-57
2023/07/27 05:20:06;;;;;;;3.30;1.70;;;21.10;67.90;;;;;;5034572;28;20076;-57
2023/07/27 05:22:32;;;;;;;3.42;1.50;;;21.10;67.90;;;;;;5033649;28;20050;-57
2023/07/27 05:24:58;;;;;;;3.08;1.73;;;21.10;67.90;;;;;;5034830;28;20126;-57
2023/07/27 05:27:23;;;;;;;2.88;1.58;;;21.10;67.90;;;;;;5032725;28;20037;-57
2023/07/27 05:29:49;;;;;;;2.53;1.60;;;21.10;67.90;;;;;;5034958;28;20139;-57
2023/07/27 05:32:14;;;;;;;3.03;1.80;;;21.10;67.90;;;;;;5034773;28;20060;-57
2023/07/27 05:34:40;;;;;;;2.92;1.55;;;21.10;67.90;;;;;;5033524;28;20054;-57
2023/07/27 05:37:05;;;;;;;3.78;2.05;;;21.10;67.90;;;;;;5035007;28;20465;-57
2023/07/27 05:39:31;;;;;;;2.33;1.35;;;21.10;67.90;;;;;;5034660;28;20045;-57
2023/07/27 05:41:57;;;;;;;3.38;1.90;;;21.10;67.90;;;;;;5034410;28;20607;-57
2023/07/27 05:44:22;;;;;;;2.58;1.52;;;21.10;67.90;;;;;;5033447;28;20038;-57
2023/07/27 05:46:53;;;;;;;3.15;1.48;;;21.10;67.90;;;;;;5033682;28;20087;-57
2023/07/27 05:49:19;;;;;;;2.92;1.65;;;21.10;67.90;;;;;;5034914;28;20077;-57
2023/07/27 05:51:44;;;;;;;3.60;1.63;;;21.10;67.90;;;;;;5034671;28;20073;-58
2023/07/27 05:54:10;;;;;;;2.85;1.60;;;21.10;67.90;;;;;;5033924;28;20046;-57
2023/07/27 05:56:35;;;;;;;3.75;1.90;;;21.10;68.00;;;;;;5033126;28;20120;-57
2023/07/27 05:59:01;;;;;;;2.72;1.58;;;21.10;68.20;;;;;;5034696;28;20045;-57
2023/07/27 06:01:26;;;;;;;6.20;2.10;;;21.10;68.10;;;;;;5033873;28;20111;-57
2023/07/27 06:03:52;;;;;;;4.55;1.50;;;21.10;68.10;;;;;;5033389;28;20132;-57
2023/07/27 06:06:17;;;;;;;3.67;1.60;;;21.10;68.20;;;;;;5034971;28;20073;-57
2023/07/27 06:08:43;;;;;;;3.60;1.85;;;21.10;68.10;;;;;;5033367;28;20076;-57
2023/07/27 06:11:09;;;;;;;2.83;1.48;;;21.10;68.00;;;;;;5034651;28;20076;-57
2023/07/27 06:13:35;;;;;;;4.63;1.88;;;21.10;68.00;;;;;;5032494;28;20046;-57
2023/07/27 06:16:01;;;;;;;2.97;1.60;;;21.10;68.20;;;;;;5032805;28;20047;-56
2023/07/27 06:18:27;;;;;;;8.23;1.65;;;21.10;68.20;;;;;;5034707;28;20128;-57
2023/07/27 06:20:52;;;;;;;3.63;1.92;;;21.10;68.20;;;;;;5033846;28;20077;-58
2023/07/27 06:23:18;;;;;;;6.00;1.67;;;21.10;68.20;;;;;;5033972;28;20072;-57
2023/07/27 06:25:44;;;;;;;3.45;1.70;;;21.10;68.20;;;;;;5034211;28;20098;-57
2023/07/27 06:28:10;;;;;;;4.80;1.67;;;21.10;68.90;;;;;;5033125;28;20045;-57
2023/07/27 06:30:36;;;;;;;4.15;1.73;;;21.10;68.30;;;;;;5032907;28;20044;-57
2023/07/27 06:33:02;;;;;;;4.13;1.60;;;21.10;68.30;;;;;;5032287;28;20042;-58
2023/07/27 06:35:28;;;;;;;4.15;1.60;;;21.10;68.40;;;;;;5032180;28;20049;-57
2023/07/27 06:37:53;;;;;;;3.42;1.55;;;21.10;68.40;;;;;;5032981;28;20401;-58
2023/07/27 06:40:19;;;;;;;4.63;1.77;;;21.10;68.50;;;;;;5033826;28;20053;-57
2023/07/27 06:42:45;;;;;;;4.65;2.42;;;21.10;68.50;;;;;;5031832;28;20112;-57
2023/07/27 06:45:10;;;;;;;8.20;2.00;;;21.10;68.60;;;;;;5033169;28;20087;-57
2023/07/27 06:47:36;;;;;;;5.82;1.70;;;21.10;68.70;;;;;;5033086;28;20500;-57
2023/07/27 06:50:03;;;;;;;4.38;1.90;;;21.10;68.80;;;;;;5032488;28;20045;-57
2023/07/27 06:52:28;;;;;;;3.30;1.70;;;21.20;68.80;;;;;;5033769;28;20068;-57
2023/07/27 06:54:54;;;;;;;7.28;2.20;;;21.20;68.90;;;;;;5033016;28;20064;-57
2023/07/27 06:57:20;;;;;;;6.30;1.73;;;21.20;69.00;;;;;;5033034;28;20041;-58
2023/07/27 06:59:46;;;;;;;6.22;2.58;;;21.20;69.00;;;;;;5032850;28;20068;-58
2023/07/27 07:02:11;;;;;;;5.10;1.95;;;21.20;69.00;;;;;;5032800;28;20095;-58
2023/07/27 07:04:37;;;;;;;6.00;2.20;;;21.20;69.10;;;;;;5028239;28;20041;-57
2023/07/27 07:07:03;;;;;;;4.88;2.17;;;21.20;69.10;;;;;;5032701;28;20033;-58
2023/07/27 07:09:28;;;;;;;4.25;1.98;;;21.20;69.10;;;;;;5028063;28;20132;-57
2023/07/27 07:11:54;;;;;;;7.47;2.38;;;21.20;69.10;;;;;;5032437;28;20431;-59
2023/07/27 07:14:19;;;;;;;4.53;1.90;;;21.20;69.20;;;;;;5032953;28;20058;-58
2023/07/27 07:16:45;;;;;;;6.68;2.00;;;21.20;69.20;;;;;;5033055;28;20038;-58
2023/07/27 07:19:11;;;;;;;4.10;2.08;;;21.20;69.30;;;;;;5032648;28;20096;-58
2023/07/27 07:21:36;;;;;;;4.70;2.00;;;21.20;69.30;;;;;;5032681;28;20095;-58
2023/07/27 07:24:02;;;;;;;4.85;2.25;;;21.20;69.30;;;;;;5032984;28;20050;-58
2023/07/27 07:26:28;;;;;;;5.28;2.20;;;21.20;69.30;;;;;;5032288;28;20045;-58
2023/07/27 07:28:53;;;;;;;7.70;2.15;;;21.20;69.30;;;;;;5032900;28;20374;-57
2023/07/27 07:31:19;;;;;;;4.05;2.13;;;21.20;69.40;;;;;;5033047;28;20053;-58
2023/07/27 07:33:44;;;;;;;7.00;2.63;;;21.20;69.40;;;;;;5032163;28;20056;-57
2023/07/27 07:36:10;;;;;;;5.65;2.30;;;21.20;69.40;;;;;;5033129;28;20037;-57
2023/07/27 07:38:35;;;;;;;4.63;1.83;;;21.20;69.40;;;;;;5032498;28;20560;-58
2023/07/27 07:41:01;;;;;;;3.42;2.15;;;21.20;69.40;;;;;;5027299;28;20544;-58
2023/07/27 07:43:27;;;;;;;6.50;2.55;;;21.20;69.50;;;;;;5033072;28;20042;-57
2023/07/27 07:45:52;;;;;;;4.43;1.80;;;21.20;69.40;;;;;;5031874;28;20497;-58
2023/07/27 07:48:18;;;;;;;5.78;2.03;;;21.20;69.40;;;;;;5031972;28;20053;-57
2023/07/27 07:50:43;;;;;;;4.55;1.75;;;21.20;69.40;;;;;;5032090;28;20039;-58
2023/07/27 07:53:09;;;;;;;4.95;2.10;;;21.20;69.40;;;;;;5032450;28;20068;-58
2023/07/27 07:55:36;;;;;;;3.70;1.75;;;21.20;69.30;;;;;;5031295;28;20057;-58
2023/07/27 07:58:01;;;;;;;4.72;1.73;;;21.20;69.30;;;;;;5031933;28;20508;-59
2023/07/27 08:00:27;;;;;;;5.97;2.00;;;21.20;69.20;;;;;;5029903;28;20042;-59
2023/07/27 08:02:52;;;;;;;4.25;1.70;;;21.20;69.20;;;;;;5012811;28;20041;-60
2023/07/27 08:05:18;;;;;;;3.88;1.88;;;21.20;69.20;;;;;;5011580;28;20057;-58
2023/07/27 08:07:44;;;;;;;11.65;2.10;;;21.20;69.20;;;;;;5011910;28;20042;-58
2023/07/27 08:10:10;;;;;;;4.55;2.00;;;21.20;69.30;;;;;;5027679;28;20077;-58
2023/07/27 08:12:36;;;;;;;5.85;1.80;;;21.20;69.50;;;;;;5011196;28;20065;-58
2023/07/27 08:15:01;;;;;;;8.02;2.10;;;21.20;69.60;;;;;;5011840;28;20046;-58
2023/07/27 08:17:30;;;;;;;8.75;2.10;;;21.20;69.60;;;;;;5012920;28;20088;-58
2023/07/27 08:19:56;;;;;;;5.15;2.35;;;21.20;69.60;;;;;;5016369;28;20133;-58
2023/07/27 08:22:21;;;;;;;6.93;2.20;;;21.20;69.50;;;;;;5026851;28;20137;-58
2023/07/27 08:24:47;;;;;;;7.20;2.30;;;21.20;69.50;;;;;;5035011;28;20045;-59
2023/07/27 08:27:13;;;;;;;10.15;2.17;;;21.20;69.70;;;;;;5034956;28;20045;-59
2023/07/27 08:29:39;;;;;;;5.53;1.98;;;21.20;69.70;;;;;;5034694;28;20041;-59
2023/07/27 08:32:05;;;;;;;4.55;1.90;;;21.20;69.80;;;;;;5035142;28;20053;-59
2023/07/27 08:34:30;;;;;;;4.97;1.98;;;21.20;69.80;;;;;;5035471;28;20041;-59
2023/07/27 08:36:56;;;;;;;7.60;2.30;;;21.10;69.70;;;;;;5032558;28;20030;-59
2023/07/27 08:39:22;;;;;;;5.82;1.65;;;21.20;69.90;;;;;;5035749;28;20121;-59
2023/07/27 08:41:47;;;;;;;6.60;2.20;;;21.20;69.90;;;;;;5032508;28;20038;-60
2023/07/27 08:44:13;;;;;;;4.55;1.85;;;21.20;70.00;;;;;;5034763;28;20050;-59
2023/07/27 08:46:42;;;;;;;7.80;2.13;;;21.20;70.00;;;;;;5032220;28;20041;-59
2023/07/27 08:49:13;;;;;;;4.90;2.20;;;21.20;70.00;;;;;;5034318;28;20046;-59
2023/07/27 08:51:41;;;;;;;5.68;1.90;;;21.20;70.60;;;;;;5029614;28;20041;-59
2023/07/27 08:54:07;;;;;;;7.95;2.10;;;21.20;70.00;;;;;;5017633;28;20115;-58
2023/07/27 08:56:32;;;;;;;4.10;1.80;;;21.20;70.00;;;;;;5031563;28;20449;-59
2023/07/27 08:58:58;;;;;;;4.15;1.75;;;21.20;70.00;;;;;;5034742;28;20026;-59
2023/07/27 09:01:23;;;;;;;8.02;1.73;;;21.20;70.10;;;;;;5030949;28;20438;-58
2023/07/27 09:03:49;;;;;;;4.55;2.10;;;21.20;70.10;;;;;;5034228;28;20502;-58
2023/07/27 09:06:15;;;;;;;2.63;1.88;;;21.20;70.10;;;;;;5022581;28;20052;-59
2023/07/27 09:08:42;;;;;;;6.32;2.05;;;21.20;70.00;;;;;;5032461;28;20095;-57
2023/07/27 09:11:08;;;;;;;7.38;1.83;;;21.20;70.00;;;;;;5031034;28;20500;-58
2023/07/27 09:13:34;;;;;;;6.03;1.90;;;21.20;70.00;;;;;;5034155;28;20171;-58
2023/07/27 09:16:01;;;;;;;4.20;1.73;;;21.20;70.00;;;;;;5014186;28;20049;-58
2023/07/27 09:18:27;;;;;;;5.68;2.00;;;21.20;70.10;;;;;;5034058;28;20111;-58
2023/07/27 09:20:53;;;;;;;9.23;2.20;;;21.20;70.10;;;;;;5029686;28;20072;-57
2023/07/27 09:23:19;;;;;;;7.82;2.10;;;21.20;70.10;;;;;;5033591;28;20064;-58
2023/07/27 09:25:52;;;;;;;10.05;1.98;;;21.20;70.20;;;;;;5033910;28;20046;-58
2023/07/27 09:28:23;;;;;;;4.65;1.90;;;21.20;70.20;;;;;;5035427;28;20107;-58
2023/07/27 09:30:49;;;;;;;6.45;2.00;;;21.20;70.20;;;;;;5034608;28;20056;-58
2023/07/27 09:33:15;;;;;;;5.05;1.85;;;21.20;70.30;;;;;;5034231;28;20045;-57
2023/07/27 09:35:40;;;;;;;8.00;2.10;;;21.20;70.20;;;;;;5034377;28;20103;-57
2023/07/27 09:38:06;;;;;;;6.38;3.22;;;21.20;70.30;;;;;;5035177;28;20045;-58
2023/07/27 09:40:32;;;;;;;7.07;2.40;;;21.30;70.40;;;;;;5032681;28;20045;-57
2023/07/27 09:42:57;;;;;;;4.97;1.88;;;21.20;70.40;;;;;;5034754;28;20041;-58
2023/07/27 09:45:23;;;;;;;6.60;1.98;;;21.30;70.40;;;;;;5033247;28;20393;-58
2023/07/27 09:47:49;;;;;;;7.25;1.95;;;21.30;70.40;;;;;;5034040;28;20049;-57
2023/07/27 09:50:14;;;;;;;7.90;2.10;;;21.30;70.50;;;;;;5033088;28;20049;-57
2023/07/27 09:52:40;;;;;;;4.85;2.03;;;21.30;70.50;;;;;;5033603;28;20038;-57
2023/07/27 09:55:07;;;;;;;5.18;1.80;;;21.30;70.50;;;;;;5033117;28;20037;-58
2023/07/27 09:57:32;;;;;;;3.20;1.70;;;21.30;70.50;;;;;;5033724;28;20045;-57
2023/07/27 09:59:58;;;;;;;5.30;1.55;;;21.30;70.50;;;;;;5031914;28;20045;-58
2023/07/27 10:02:24;;;;;;;5.53;2.17;;;21.30;70.50;;;;;;5026518;28;20041;-57
2023/07/27 10:04:49;;;;;;;6.53;1.83;;;21.30;70.50;;;;;;5033858;28;20048;-57
2023/07/27 10:07:18;;;;;;;3.38;1.67;;;21.30;70.50;;;;;;5028430;28;20048;-57
2023/07/27 10:09:45;;;;;;;3.40;1.40;;;21.30;70.50;;;;;;5029811;28;20382;-57
2023/07/27 10:12:10;;;;;;;4.30;1.85;;;21.30;70.50;;;;;;5024569;28;20579;-57
2023/07/27 10:14:37;;;;;;;3.00;1.75;;;21.30;70.50;;;;;;5032359;28;20136;-58
2023/07/27 10:17:07;;;;;;;3.90;2.00;;;21.30;70.60;;;;;;5002257;28;20042;-57
2023/07/27 10:19:43;;;;;;;6.65;1.85;;;21.30;70.50;;;;;;5013155;28;20077;-58
2023/07/27 10:22:13;;;;;;;5.60;1.85;;;21.30;70.60;;;;;;5013421;28;20058;-58
2023/07/27 10:25:05;;;;;;;4.57;1.80;;;21.30;70.50;;;;;;5014308;28;20053;-58
2023/07/27 10:27:31;;;;;;;5.05;1.80;;;21.30;70.80;;;;;;5012879;28;20052;-57
2023/07/27 10:30:13;;;;;;;5.97;1.80;;;21.30;70.80;;;;;;5011755;28;20054;-57
2023/07/27 10:32:39;;;;;;;3.30;1.83;;;21.30;70.80;;;;;;5013043;28;20077;-57
2023/07/27 10:35:08;;;;;;;4.50;1.73;;;21.30;70.80;;;;;;5012424;28;20088;-58
2023/07/27 10:37:55;;;;;;;5.95;1.83;;;21.30;70.70;;;;;;5017006;28;20050;-57
2023/07/27 10:40:27;;;;;;;4.22;1.73;;;21.30;70.70;;;;;;5012515;28;20042;-58
2023/07/27 10:42:56;;;;;;;5.85;1.95;;;21.30;70.80;;;;;;5014693;28;20050;-56
2023/07/27 10:45:28;;;;;;;7.32;1.80;;;21.30;70.80;;;;;;5033239;28;20142;-57
2023/07/27 10:47:56;;;;;;;3.33;1.52;;;21.30;70.90;;;;;;5032854;28;20060;-57
2023/07/27 10:50:22;;;;;;;8.27;1.83;;;21.30;70.80;;;;;;5031687;28;20029;-58
2023/07/27 10:52:51;;;;;;;8.23;2.00;;;21.30;70.80;;;;;;5032218;28;20798;-57
2023/07/27 10:55:19;;;;;;;7.45;1.92;;;21.30;70.90;;;;;;5031983;28;20049;-58
2023/07/27 10:57:45;;;;;;;8.43;2.90;;;21.30;70.90;;;;;;5032356;28;20054;-58
2023/07/27 11:00:11;;;;;;;4.18;1.63;;;21.30;70.90;;;;;;5032505;28;20401;-58
2023/07/27 11:02:36;;;;;;;6.28;1.92;;;21.30;70.90;;;;;;5032638;28;20041;-58
2023/07/27 11:05:05;;;;;;;4.55;1.70;;;21.30;70.90;;;;;;5031447;28;20060;-58
2023/07/27 11:07:33;;;;;;;3.08;1.40;;;21.30;70.90;;;;;;5030820;28;20038;-58
2023/07/27 11:10:01;;;;;;;6.50;1.80;;;21.30;70.90;;;;;;5032277;28;20041;-58
2023/07/27 11:12:27;;;;;;;4.93;1.60;;;21.30;71.00;;;;;;5032857;28;20378;-58
2023/07/27 11:14:52;;;;;;;6.60;1.65;;;21.30;71.00;;;;;;5033155;28;20495;-58
2023/07/27 11:17:19;;;;;;;4.43;1.52;;;21.30;71.00;;;;;;5032348;28;20570;-58
2023/07/27 11:19:46;;;;;;;5.78;1.75;;;21.30;71.00;;;;;;5033263;28;20037;-58
2023/07/27 11:22:12;;;;;;;4.20;1.50;;;21.30;71.00;;;;;;5031990;28;20075;-58
2023/07/27 11:24:38;;;;;;;3.10;1.40;;;21.30;71.00;;;;;;5031720;28;20051;-57
2023/07/27 11:27:04;;;;;;;4.65;1.52;;;21.30;71.10;;;;;;5033041;28;20041;-58
2023/07/27 11:29:32;;;;;;;5.53;1.77;;;21.20;71.00;;;;;;5015689;28;20100;-58
2023/07/27 11:31:59;;;;;;;6.03;1.40;;;21.30;71.10;;;;;;5032062;28;20517;-58
2023/07/27 11:34:26;;;;;;;4.60;1.42;;;21.30;71.00;;;;;;5033152;28;20077;-58
2023/07/27 11:36:58;;;;;;;3.60;1.27;;;21.30;71.10;;;;;;5032862;28;20503;-57
2023/07/27 11:39:23;;;;;;;4.90;1.70;;;21.30;71.10;;;;;;5032593;28;20052;-58
2023/07/27 11:41:49;;;;;;;6.78;1.50;;;21.30;71.00;;;;;;5014845;28;20045;-58
2023/07/27 11:44:16;;;;;;;4.97;1.40;;;21.30;71.00;;;;;;5032813;28;20037;-58
2023/07/27 11:46:46;;;;;;;6.70;1.75;;;21.30;70.90;;;;;;5031945;28;20041;-58
2023/07/27 11:49:14;;;;;;;5.80;1.50;;;21.30;71.00;;;;;;5033003;28;20128;-58
2023/07/27 11:51:41;;;;;;;3.05;1.25;;;21.30;71.00;;;;;;5032512;28;20488;-58
2023/07/27 11:54:23;;;;;;;3.20;1.50;;;21.30;70.90;;;;;;5030087;28;20085;-57
2023/07/27 11:56:53;;;;;;;6.00;1.33;;;21.30;70.90;;;;;;5032560;28;20047;-58
2023/07/27 11:59:22;;;;;;;4.15;1.50;;;21.30;70.90;;;;;;5032544;28;20407;-58
2023/07/27 12:01:51;;;;;;;5.10;1.48;;;21.30;71.00;;;;;;5032543;28;20124;-58
2023/07/27 12:04:20;;;;;;;6.10;1.70;;;21.30;70.90;;;;;;5032841;28;20045;-58
2023/07/27 12:06:46;;;;;;;3.80;1.17;;;21.30;70.90;;;;;;5030762;28;20045;-58
2023/07/27 12:09:11;;;;;;;4.68;1.45;;;21.30;70.90;;;;;;5032834;28;20045;-58
2023/07/27 12:11:38;;;;;;;3.30;1.30;;;21.30;71.50;;;;;;5031997;28;20084;-58
2023/07/27 12:14:05;;;;;;;3.47;1.40;;;21.30;70.90;;;;;;5032297;28;20497;-58
2023/07/27 12:16:43;;;;;;;3.88;1.55;;;21.30;70.90;;;;;;5031442;28;20053;-57
2023/07/27 12:19:08;;;;;;;;;;;21.30;70.90;;;;;;5031969;28;20072;-57
2023/07/27 12:21:43;;;;;;;3.83;1.10;;;21.30;70.80;;;;;;5031541;28;20367;-58
2023/07/27 12:24:09;;;;;;;3.35;1.30;;;21.30;70.90;;;;;;5031622;28;20045;-58
2023/07/27 12:26:35;;;;;;;3.20;1.40;;;21.30;70.90;;;;;;5032241;28;20087;-58
2023/07/27 12:29:01;;;;;;;2.97;1.45;;;21.30;71.00;;;;;;5032044;28;20056;-58
2023/07/27 12:31:26;;;;;;;3.03;1.30;;;21.30;71.00;;;;;;5032437;28;20034;-57
2023/07/27 12:33:52;;;;;;;3.90;1.35;;;21.30;71.00;;;;;;5032166;28;20046;-58
2023/07/27 12:36:18;;;;;;;4.75;1.35;;;21.30;71.00;;;;;;5031634;28;20037;-58
2023/07/27 12:38:44;;;;;;;2.65;1.35;;;21.30;71.00;;;;;;5032163;28;20053;-58
2023/07/27 12:41:10;;;;;;;2.55;1.20;;;21.30;71.00;;;;;;5032364;28;20056;-57
2023/07/27 12:43:35;;;;;;;2.35;1.10;;;21.30;71.10;;;;;;5031685;28;20041;-57
2023/07/27 12:46:01;;;;;;;5.55;1.20;;;21.30;71.10;;;;;;5032554;28;20038;-57